createdAt,value
2019-05-09T00:02:05.367Z,8.00
2019-05-09T00:04:34.384Z,9.25
2019-05-09T00:07:03.623Z,8.98
2019-05-09T00:09:33.635Z,9.08
2019-05-09T00:12:03.712Z,8.80
2019-05-09T00:14:34.240Z,8.88
2019-05-09T00:17:03.830Z,8.23
2019-05-09T00:19:33.383Z,9.03
2019-05-09T00:22:03.473Z,8.38
2019-05-09T00:24:33.243Z,8.88
2019-05-09T00:27:03.885Z,8.48
2019-05-09T00:29:34.468Z,8.60
2019-05-09T00:32:07.962Z,7.40
2019-05-09T00:34:56.822Z,8.20
2019-05-09T00:37:44.127Z,8.60
2019-05-09T00:40:13.282Z,8.98
2019-05-09T00:42:44.035Z,8.65
2019-05-09T00:45:14.668Z,9.80
2019-05-09T00:47:43.433Z,9.25
2019-05-09T00:50:13.217Z,8.83
2019-05-09T00:52:43.085Z,8.93
2019-05-09T00:55:13.263Z,9.28
2019-05-09T00:57:43.984Z,9.58
2019-05-09T01:00:15.010Z,9.48
2019-05-09T01:02:44.311Z,9.25
2019-05-09T01:05:13.631Z,10.03
2019-05-09T01:07:43.168Z,9.48
2019-05-09T01:10:13.364Z,9.53
2019-05-09T01:12:43.511Z,9.25
2019-05-09T01:15:13.417Z,9.90
2019-05-09T01:17:44.191Z,9.68
2019-05-09T01:20:14.735Z,9.70
2019-05-09T01:22:43.668Z,10.15
2019-05-09T01:25:13.429Z,10.03
2019-05-09T01:27:43.149Z,9.50
2019-05-09T01:30:13.502Z,9.05
2019-05-09T01:32:50.155Z,8.98
2019-05-09T01:35:19.287Z,8.70
2019-05-09T01:37:48.242Z,7.95
2019-05-09T01:40:16.889Z,7.12
2019-05-09T01:42:45.785Z,7.00
2019-05-09T01:45:14.460Z,6.42
2019-05-09T01:47:43.571Z,6.87
2019-05-09T01:50:13.994Z,6.95
2019-05-09T01:52:43.915Z,7.08
2019-05-09T01:55:14.199Z,6.50
2019-05-09T01:57:47.446Z,7.22
2019-05-09T02:00:14.515Z,6.58
2019-05-09T02:02:43.659Z,7.08
2019-05-09T02:05:13.472Z,6.58
2019-05-09T02:07:43.839Z,6.62
2019-05-09T02:10:13.946Z,6.28
2019-05-09T02:12:43.095Z,6.45
2019-05-09T02:15:20.114Z,7.53
2019-05-09T02:17:58.881Z,6.60
2019-05-09T02:20:24.436Z,6.45
2019-05-09T02:22:54.238Z,7.35
2019-05-09T02:25:24.238Z,7.62
2019-05-09T02:27:55.247Z,8.55
2019-05-09T02:30:25.374Z,8.68
2019-05-09T02:32:54.895Z,7.45
2019-05-09T02:35:23.945Z,7.37
2019-05-09T02:37:52.630Z,7.08
2019-05-09T02:40:21.384Z,6.90
2019-05-09T02:42:53.436Z,7.00
2019-05-09T02:45:28.762Z,6.75
2019-05-09T02:47:59.006Z,6.80
2019-05-09T02:50:28.660Z,6.95
2019-05-09T02:52:59.027Z,6.58
2019-05-09T02:55:28.927Z,6.95
2019-05-09T02:57:59.394Z,6.53
2019-05-09T03:00:42.790Z,7.08
2019-05-09T03:03:13.376Z,6.45
2019-05-09T03:05:42.361Z,6.85
2019-05-09T03:08:11.478Z,7.42
2019-05-09T03:10:40.048Z,6.62
2019-05-09T03:13:09.496Z,6.62
2019-05-09T03:15:39.416Z,6.67
2019-05-09T03:18:09.394Z,7.25
2019-05-09T03:20:52.070Z,6.92
2019-05-09T03:23:21.181Z,7.62
2019-05-09T03:25:53.453Z,7.67
2019-05-09T03:28:28.344Z,7.28
2019-05-09T03:30:59.352Z,6.78
2019-05-09T03:33:30.851Z,7.78
2019-05-09T03:35:59.539Z,7.10
2019-05-09T03:38:28.569Z,6.87
2019-05-09T03:40:58.055Z,7.45
2019-05-09T03:43:27.651Z,7.58
2019-05-09T03:46:13.326Z,7.55
2019-05-09T03:48:58.145Z,8.00
2019-05-09T03:51:27.526Z,7.20
2019-05-09T03:53:57.615Z,7.72
2019-05-09T03:56:37.456Z,8.13
2019-05-09T03:59:05.411Z,7.15
2019-05-09T04:01:34.355Z,7.47
2019-05-09T04:04:03.501Z,8.80
2019-05-09T04:06:32.721Z,8.13
2019-05-09T04:09:01.564Z,8.30
2019-05-09T04:11:30.831Z,8.10
2019-05-09T04:14:08.331Z,8.65
2019-05-09T04:16:38.162Z,8.18
2019-05-09T04:19:08.310Z,8.10
2019-05-09T04:21:38.330Z,8.48
2019-05-09T04:24:08.513Z,8.68
2019-05-09T04:26:39.194Z,8.43
2019-05-09T04:29:08.202Z,9.30
2019-05-09T04:31:38.353Z,9.90
2019-05-09T04:34:09.663Z,9.03
2019-05-09T04:36:44.011Z,8.63
2019-05-09T04:39:21.475Z,8.35
2019-05-09T04:41:43.817Z,8.38
2019-05-09T04:44:19.201Z,8.90
2019-05-09T04:46:48.026Z,8.83
2019-05-09T04:49:18.981Z,8.25
2019-05-09T04:51:47.942Z,9.25
2019-05-09T04:54:17.881Z,8.80
2019-05-09T04:56:47.588Z,10.18
2019-05-09T04:59:17.898Z,9.53
2019-05-09T05:01:58.321Z,10.53
2019-05-09T05:04:28.272Z,9.30
2019-05-09T05:06:58.572Z,15.83
2019-05-09T05:09:27.901Z,10.15
2019-05-09T05:12:02.378Z,9.28
2019-05-09T05:14:32.016Z,9.60
2019-05-09T05:17:07.706Z,9.98
2019-05-09T05:19:35.451Z,10.03
2019-05-09T05:22:04.586Z,9.85
2019-05-09T05:24:41.093Z,9.88
2019-05-09T05:27:10.188Z,10.23
2019-05-09T05:29:39.148Z,10.35
2019-05-09T05:32:09.849Z,9.78
2019-05-09T05:34:43.392Z,9.85
2019-05-09T05:37:12.587Z,10.95
2019-05-09T05:39:41.577Z,11.18
2019-05-09T05:42:10.823Z,10.48
2019-05-09T05:44:40.037Z,11.25
2019-05-09T05:47:10.944Z,10.80
2019-05-09T05:49:39.762Z,11.75
2019-05-09T05:52:09.125Z,10.58
2019-05-09T05:54:38.227Z,11.43
2019-05-09T05:57:08.477Z,11.45
2019-05-09T05:59:40.781Z,11.12
2019-05-09T06:02:08.765Z,11.28
2019-05-09T06:04:38.266Z,11.73
2019-05-09T06:07:08.196Z,11.97
2019-05-09T06:09:38.092Z,11.30
2019-05-09T06:12:08.398Z,12.50
2019-05-09T06:14:37.984Z,11.80
2019-05-09T06:17:08.049Z,11.80
2019-05-09T06:19:38.122Z,12.50
2019-05-09T06:22:08.184Z,12.85
2019-05-09T06:24:38.760Z,12.33
2019-05-09T06:27:10.453Z,12.70
2019-05-09T06:29:38.886Z,12.80
2019-05-09T06:32:08.159Z,12.70
2019-05-09T06:34:41.653Z,13.05
2019-05-09T06:37:09.084Z,12.65
2019-05-09T06:39:38.055Z,11.93
2019-05-09T06:42:09.078Z,12.90
2019-05-09T06:44:38.991Z,14.23
2019-05-09T06:47:09.126Z,13.20
2019-05-09T06:49:39.423Z,13.78
2019-05-09T06:52:08.864Z,12.50
2019-05-09T06:54:41.317Z,13.98
2019-05-09T06:57:08.163Z,13.72
2019-05-09T06:59:38.162Z,13.30
2019-05-09T07:02:09.068Z,13.78
2019-05-09T07:04:39.776Z,13.15
2019-05-09T07:07:11.274Z,15.10
2019-05-09T07:09:48.835Z,15.63
2019-05-09T07:12:18.127Z,14.07
2019-05-09T07:14:48.780Z,14.28
2019-05-09T07:17:18.842Z,15.20
2019-05-09T07:19:50.405Z,15.50
2019-05-09T07:22:27.865Z,14.73
2019-05-09T07:25:09.327Z,15.50
2019-05-09T07:27:35.828Z,14.00
2019-05-09T07:30:19.403Z,14.15
2019-05-09T07:32:52.488Z,14.83
2019-05-09T07:35:21.905Z,15.25
2019-05-09T07:37:52.676Z,16.17
2019-05-09T07:40:21.891Z,15.43
2019-05-09T07:42:50.906Z,15.18
2019-05-09T07:45:20.685Z,16.23
2019-05-09T07:47:49.963Z,16.20
2019-05-09T07:50:19.603Z,14.40
2019-05-09T07:52:48.913Z,14.58
2019-05-09T07:55:18.252Z,16.10
2019-05-09T07:57:55.105Z,16.10
2019-05-09T08:00:22.077Z,15.85
2019-05-09T08:02:57.974Z,15.72
2019-05-09T08:05:28.056Z,15.32
2019-05-09T08:07:58.642Z,13.88
2019-05-09T08:10:32.713Z,15.35
2019-05-09T08:12:59.567Z,14.78
2019-05-09T08:15:28.818Z,15.93
2019-05-09T08:17:59.387Z,17.75
2019-05-09T08:20:29.128Z,15.18
2019-05-09T08:23:01.911Z,14.58
2019-05-09T08:25:29.560Z,14.73
2019-05-09T08:27:59.556Z,14.43
2019-05-09T08:30:35.869Z,14.55
2019-05-09T08:33:00.780Z,14.63
2019-05-09T08:35:29.751Z,15.32
2019-05-09T08:37:58.963Z,16.67
2019-05-09T08:40:28.626Z,15.53
2019-05-09T08:42:58.846Z,15.48
2019-05-09T08:45:31.341Z,16.65
2019-05-09T08:47:59.414Z,15.38
2019-05-09T08:50:33.594Z,15.95
2019-05-09T08:53:04.115Z,16.62
2019-05-09T08:55:33.502Z,14.68
2019-05-09T08:58:02.944Z,14.93
2019-05-09T09:00:32.583Z,15.78
2019-05-09T09:03:02.016Z,15.80
2019-05-09T09:05:31.904Z,14.18
2019-05-09T09:08:01.502Z,13.93
2019-05-09T09:10:30.907Z,14.23
2019-05-09T09:13:00.158Z,13.95
2019-05-09T09:15:56.061Z,14.73
2019-05-09T09:18:00.225Z,14.63
2019-05-09T09:20:29.788Z,14.30
2019-05-09T09:22:59.045Z,15.00
2019-05-09T09:25:28.774Z,15.60
2019-05-09T09:28:01.073Z,14.30
2019-05-09T09:30:30.792Z,14.28
2019-05-09T09:33:00.009Z,14.95
2019-05-09T09:35:29.328Z,15.08
2019-05-09T09:37:59.036Z,19.87
2019-05-09T09:40:28.244Z,14.30
2019-05-09T09:42:58.251Z,14.90
2019-05-09T09:45:28.340Z,14.70
2019-05-09T09:48:01.075Z,14.00
2019-05-09T09:50:30.322Z,14.83
2019-05-09T09:52:59.765Z,15.08
2019-05-09T09:55:30.009Z,14.10
2019-05-09T09:58:00.789Z,14.78
2019-05-09T10:01:02.778Z,13.83
2019-05-09T10:03:30.797Z,14.20
2019-05-09T10:06:01.140Z,13.90
2019-05-09T10:08:31.285Z,13.43
2019-05-09T10:11:00.604Z,13.93
2019-05-09T10:13:29.629Z,13.45
2019-05-09T10:16:02.838Z,14.90
2019-05-09T10:18:38.162Z,15.53
2019-05-09T10:21:21.238Z,13.25
2019-05-09T10:23:50.878Z,13.95
2019-05-09T10:26:20.560Z,16.17
2019-05-09T10:28:50.207Z,16.25
2019-05-09T10:31:19.676Z,18.10
2019-05-09T10:33:49.290Z,15.32
2019-05-09T10:36:21.641Z,16.10
2019-05-09T10:38:51.703Z,18.42
2019-05-09T10:41:22.645Z,18.17
2019-05-09T10:43:59.677Z,19.92
2019-05-09T10:46:51.428Z,23.40
2019-05-09T10:49:11.094Z,26.50
2019-05-09T10:51:40.418Z,19.37
2019-05-09T10:54:09.608Z,15.15
2019-05-09T10:56:38.999Z,14.63
2019-05-09T10:59:08.172Z,14.73
2019-05-09T11:01:38.365Z,14.58
2019-05-09T11:04:08.404Z,13.62
2019-05-09T11:06:38.579Z,12.37
2019-05-09T11:09:09.272Z,14.75
2019-05-09T11:11:38.548Z,14.58
2019-05-09T11:14:08.554Z,13.60
2019-05-09T11:16:47.413Z,13.28
2019-05-09T11:19:15.185Z,13.75
2019-05-09T11:21:44.337Z,13.40
2019-05-09T11:24:13.471Z,14.47
2019-05-09T11:26:42.708Z,13.72
2019-05-09T11:29:12.056Z,13.98
2019-05-09T11:31:41.464Z,14.30
2019-05-09T11:34:10.510Z,14.63
2019-05-09T11:36:39.797Z,14.40
2019-05-09T11:39:10.614Z,14.73
2019-05-09T11:41:40.289Z,15.23
2019-05-09T11:44:09.187Z,12.68
2019-05-09T11:46:38.523Z,13.45
2019-05-09T11:49:08.172Z,10.43
2019-05-09T11:51:38.032Z,11.50
2019-05-09T11:54:09.093Z,11.65
2019-05-09T11:56:38.432Z,11.90
2019-05-09T11:59:10.013Z,10.55
2019-05-09T12:01:39.713Z,11.35
2019-05-09T12:04:09.559Z,10.15
2019-05-09T12:06:39.637Z,13.15
2019-05-09T12:09:09.902Z,9.90
2019-05-09T12:11:43.970Z,9.28
2019-05-09T12:14:10.204Z,9.30
2019-05-09T12:16:39.403Z,8.08
2019-05-09T12:19:08.587Z,8.78
2019-05-09T12:21:46.887Z,8.53
2019-05-09T12:24:09.198Z,9.75
2019-05-09T12:26:39.076Z,10.55
2019-05-09T12:29:08.961Z,10.15
2019-05-09T12:31:38.724Z,10.58
2019-05-09T12:34:09.128Z,9.90
2019-05-09T12:36:39.738Z,10.13
2019-05-09T12:39:09.621Z,9.30
2019-05-09T12:41:38.772Z,8.50
2019-05-09T12:44:08.840Z,9.53
2019-05-09T12:46:39.302Z,9.28
2019-05-09T12:49:09.562Z,8.88
2019-05-09T12:51:38.921Z,8.23
2019-05-09T12:54:08.772Z,9.23
2019-05-09T12:56:38.633Z,7.65
2019-05-09T12:59:08.728Z,7.67
2019-05-09T13:01:40.929Z,8.23
2019-05-09T13:04:09.699Z,8.18
2019-05-09T13:06:42.074Z,7.67
2019-05-09T13:09:11.451Z,8.05
2019-05-09T13:11:41.019Z,7.92
2019-05-09T13:14:10.393Z,7.97
2019-05-09T13:16:50.694Z,8.75
2019-05-09T13:19:19.982Z,8.25
2019-05-09T13:21:49.420Z,8.00
2019-05-09T13:24:19.602Z,7.92
2019-05-09T13:26:51.549Z,6.92
2019-05-09T13:29:20.658Z,7.62
2019-05-09T13:31:49.967Z,6.75
2019-05-09T13:34:19.134Z,7.45
2019-05-09T13:36:48.878Z,7.35
2019-05-09T13:39:18.264Z,7.17
2019-05-09T13:41:47.828Z,7.60
2019-05-09T13:44:18.095Z,6.47
2019-05-09T13:46:48.903Z,6.40
2019-05-09T13:49:19.348Z,5.20
2019-05-09T13:51:58.222Z,6.33
2019-05-09T13:54:21.934Z,6.25
2019-05-09T13:56:57.598Z,5.90
2019-05-09T13:59:29.265Z,5.87
2019-05-09T14:01:58.098Z,5.35
2019-05-09T14:04:30.211Z,5.67
2019-05-09T14:06:59.430Z,6.37
2019-05-09T14:09:29.424Z,6.35
2019-05-09T14:11:59.141Z,7.58
2019-05-09T14:14:30.976Z,6.90
2019-05-09T14:17:00.503Z,7.00
2019-05-09T14:19:40.398Z,5.58
2019-05-09T14:22:00.651Z,5.37
2019-05-09T14:24:29.537Z,6.33
2019-05-09T14:26:59.048Z,6.00
2019-05-09T14:29:31.644Z,5.50
2019-05-09T14:31:59.700Z,5.50
2019-05-09T14:34:30.215Z,8.78
2019-05-09T14:36:59.105Z,7.40
2019-05-09T14:39:28.308Z,7.55
2019-05-09T14:41:57.838Z,8.98
2019-05-09T14:44:27.808Z,6.90
2019-05-09T14:46:58.401Z,6.45
2019-05-09T14:49:39.639Z,7.45
2019-05-09T14:51:59.573Z,8.40
2019-05-09T14:54:29.105Z,9.18
2019-05-09T14:56:58.506Z,8.53
2019-05-09T14:59:28.610Z,7.92
2019-05-09T15:01:59.077Z,8.63
2019-05-09T15:04:28.540Z,8.53
2019-05-09T15:06:58.019Z,11.78
2019-05-09T15:09:28.444Z,107.03
2019-05-09T15:11:58.529Z,77.72
2019-05-09T15:14:28.955Z,49.58
2019-05-09T15:16:58.392Z,27.22
2019-05-09T15:19:28.751Z,20.05
2019-05-09T15:22:00.745Z,15.30
2019-05-09T15:24:29.027Z,10.75
2019-05-09T15:26:59.290Z,10.63
2019-05-09T15:29:29.089Z,9.80
2019-05-09T15:32:05.615Z,10.25
2019-05-09T15:34:29.088Z,8.80
2019-05-09T15:36:58.396Z,9.58
2019-05-09T15:39:27.903Z,8.00
2019-05-09T15:41:57.934Z,8.33
2019-05-09T15:44:28.007Z,7.05
2019-05-09T15:47:07.445Z,7.40
2019-05-09T15:49:38.357Z,6.72
2019-05-09T15:52:07.392Z,5.97
2019-05-09T15:54:38.657Z,6.12
2019-05-09T15:57:08.665Z,6.37
2019-05-09T15:59:39.006Z,5.72
2019-05-09T16:02:09.177Z,6.05
2019-05-09T16:04:40.041Z,6.62
2019-05-09T16:07:09.382Z,7.45
2019-05-09T16:09:38.577Z,6.53
2019-05-09T16:12:07.911Z,6.17
2019-05-09T16:14:38.101Z,5.97
2019-05-09T16:17:07.950Z,6.33
2019-05-09T16:19:37.935Z,6.92
2019-05-09T16:22:08.039Z,7.10
2019-05-09T16:24:38.160Z,7.37
2019-05-09T16:27:08.584Z,6.03
2019-05-09T16:29:38.321Z,6.15
2019-05-09T16:32:08.823Z,7.50
2019-05-09T16:34:38.760Z,6.03
2019-05-09T16:37:07.983Z,5.37
2019-05-09T16:39:37.883Z,5.45
2019-05-09T16:42:07.718Z,5.85
2019-05-09T16:44:37.743Z,6.58
2019-05-09T16:47:08.338Z,5.87
2019-05-09T16:49:38.703Z,5.60
2019-05-09T16:52:09.247Z,5.90
2019-05-09T16:54:39.783Z,6.20
2019-05-09T16:57:08.948Z,6.40
2019-05-09T16:59:39.081Z,5.62
2019-05-09T17:02:19.045Z,5.72
2019-05-09T17:04:39.199Z,6.25
2019-05-09T17:07:08.489Z,5.60
2019-05-09T17:09:38.959Z,5.40
2019-05-09T17:12:08.378Z,5.87
2019-05-09T17:14:37.629Z,5.37
2019-05-09T17:17:08.395Z,4.92
2019-05-09T17:19:37.811Z,5.87
2019-05-09T17:22:17.634Z,5.15
2019-05-09T17:24:48.372Z,4.97
2019-05-09T17:27:18.815Z,5.15
2019-05-09T17:29:48.400Z,5.67
2019-05-09T17:32:18.301Z,6.05
2019-05-09T17:34:47.657Z,5.30
2019-05-09T17:37:17.735Z,6.25
2019-05-09T17:39:47.423Z,6.45
2019-05-09T17:42:18.275Z,6.78
2019-05-09T17:44:48.848Z,6.60
2019-05-09T17:47:18.622Z,6.90
2019-05-09T17:49:48.364Z,6.95
2019-05-09T17:52:18.289Z,8.43
2019-05-09T17:54:48.558Z,9.28
2019-05-09T17:57:18.846Z,9.05
2019-05-09T17:59:48.963Z,9.23
2019-05-09T18:02:18.433Z,9.45
2019-05-09T18:04:48.097Z,9.48
2019-05-09T18:07:18.192Z,9.98
2019-05-09T18:09:48.311Z,8.68
2019-05-09T18:12:18.957Z,8.18
2019-05-09T18:14:48.450Z,9.43
2019-05-09T18:17:19.305Z,9.48
2019-05-09T18:19:50.730Z,9.90
2019-05-09T18:22:20.114Z,11.28
2019-05-09T18:24:49.535Z,12.10
2019-05-09T18:27:18.887Z,12.98
2019-05-09T18:29:48.294Z,12.90
2019-05-09T18:32:19.334Z,11.97
2019-05-09T18:34:48.749Z,12.45
2019-05-09T18:37:18.351Z,13.68
2019-05-09T18:39:48.463Z,13.22
2019-05-09T18:42:18.072Z,13.60
2019-05-09T18:44:47.713Z,15.23
2019-05-09T18:47:18.487Z,15.58
2019-05-09T18:49:48.117Z,16.62
2019-05-09T18:52:17.311Z,16.20
2019-05-09T18:54:46.935Z,16.37
2019-05-09T18:57:16.197Z,17.40
2019-05-09T18:59:45.512Z,15.65
2019-05-09T19:02:14.630Z,16.35
2019-05-09T19:04:44.303Z,15.25
2019-05-09T19:07:22.615Z,15.63
2019-05-09T19:09:45.223Z,15.70
2019-05-09T19:12:14.510Z,16.27
2019-05-09T19:14:50.051Z,16.67
2019-05-09T19:17:37.145Z,16.97
2019-05-09T19:20:11.284Z,17.17
2019-05-09T19:22:41.599Z,17.77
2019-05-09T19:25:10.698Z,16.60
2019-05-09T19:27:40.010Z,16.90
2019-05-09T19:30:09.310Z,17.45
2019-05-09T19:32:38.963Z,16.95
2019-05-09T19:35:08.619Z,16.20
2019-05-09T19:37:38.831Z,14.90
2019-05-09T19:40:08.439Z,14.33
2019-05-09T19:42:38.290Z,13.13
2019-05-09T19:45:09.535Z,13.70
2019-05-09T19:47:38.896Z,14.18
2019-05-09T19:50:09.271Z,12.43
2019-05-09T19:52:38.904Z,12.75
2019-05-09T19:55:08.540Z,12.70
2019-05-09T19:57:37.807Z,12.60
2019-05-09T20:00:10.359Z,11.73
2019-05-09T20:02:41.310Z,12.82
2019-05-09T20:05:11.651Z,13.28
2019-05-09T20:07:40.953Z,12.60
2019-05-09T20:10:12.212Z,13.53
2019-05-09T20:12:43.774Z,13.80
2019-05-09T20:15:14.385Z,13.43
2019-05-09T20:17:44.495Z,14.90
2019-05-09T20:20:13.500Z,15.78
2019-05-09T20:22:52.517Z,16.55
2019-05-09T20:25:12.920Z,15.88
2019-05-09T20:27:42.039Z,16.23
2019-05-09T20:30:10.943Z,17.40
2019-05-09T20:32:40.000Z,18.40
2019-05-09T20:35:09.074Z,16.45
2019-05-09T20:37:38.229Z,17.05
2019-05-09T20:40:08.082Z,17.52
2019-05-09T20:42:37.291Z,18.32
2019-05-09T20:45:07.322Z,17.15
2019-05-09T20:47:36.674Z,17.90
2019-05-09T20:50:06.699Z,17.12
2019-05-09T20:52:36.150Z,17.02
2019-05-09T20:55:09.875Z,17.67
2019-05-09T20:57:39.310Z,17.30
2019-05-09T21:00:11.491Z,18.37
2019-05-09T21:02:41.833Z,17.32
2019-05-09T21:05:11.258Z,17.17
2019-05-09T21:07:40.544Z,18.37
2019-05-09T21:10:10.973Z,19.75
2019-05-09T21:12:40.262Z,19.00
2019-05-09T21:15:10.605Z,18.82
2019-05-09T21:17:39.749Z,18.55
2019-05-09T21:20:10.345Z,19.57
2019-05-09T21:22:39.408Z,19.62
2019-05-09T21:25:09.231Z,18.80
2019-05-09T21:27:38.466Z,19.32
2019-05-09T21:30:08.356Z,20.10
2019-05-09T21:32:37.882Z,20.37
2019-05-09T21:35:07.873Z,20.90
2019-05-09T21:37:36.867Z,20.80
2019-05-09T21:40:06.794Z,18.82
2019-05-09T21:42:35.901Z,19.65
2019-05-09T21:45:05.879Z,20.37
2019-05-09T21:47:34.981Z,21.05
2019-05-09T21:50:05.043Z,21.37
2019-05-09T21:52:35.618Z,21.35
2019-05-09T21:55:05.013Z,21.95
2019-05-09T21:57:34.394Z,22.75
2019-05-09T22:00:03.982Z,20.92
2019-05-09T22:02:33.108Z,22.15
2019-05-09T22:05:02.528Z,22.87
2019-05-09T22:07:31.344Z,21.90
2019-05-09T22:10:01.130Z,22.00
2019-05-09T22:12:31.186Z,22.13
2019-05-09T22:15:03.661Z,21.68
2019-05-09T22:17:38.988Z,20.52
2019-05-09T22:20:13.454Z,21.97
2019-05-09T22:22:42.784Z,21.75
2019-05-09T22:25:12.269Z,20.75
2019-05-09T22:27:41.037Z,21.95
2019-05-09T22:30:11.759Z,22.80
2019-05-09T22:32:40.588Z,23.38
2019-05-09T22:35:10.539Z,23.18
2019-05-09T22:37:39.619Z,22.13
2019-05-09T22:40:10.207Z,22.05
2019-05-09T22:42:39.015Z,22.65
2019-05-09T22:45:08.383Z,23.27
2019-05-09T22:47:37.546Z,23.83
2019-05-09T22:50:06.862Z,21.07
2019-05-09T22:52:36.061Z,21.40
2019-05-09T22:55:05.382Z,21.52
2019-05-09T22:57:35.191Z,21.33
2019-05-09T23:00:05.270Z,22.60
2019-05-09T23:02:34.472Z,21.17
2019-05-09T23:05:04.680Z,22.05
2019-05-09T23:07:34.083Z,20.02
2019-05-09T23:10:03.470Z,19.42
2019-05-09T23:12:33.010Z,20.35
2019-05-09T23:15:02.475Z,20.88
2019-05-09T23:17:31.288Z,20.57
2019-05-09T23:20:00.593Z,20.05
2019-05-09T23:22:31.208Z,20.75
2019-05-09T23:25:00.506Z,21.62
2019-05-09T23:27:29.720Z,19.17
2019-05-09T23:29:58.950Z,19.75
2019-05-09T23:32:29.500Z,21.12
2019-05-09T23:34:58.545Z,18.57
2019-05-09T23:37:27.789Z,18.50
2019-05-09T23:39:57.671Z,18.95
2019-05-09T23:42:26.876Z,18.90
2019-05-09T23:44:56.469Z,19.90
2019-05-09T23:47:25.558Z,19.77
2019-05-09T23:49:54.636Z,20.00
2019-05-09T23:52:24.156Z,18.40
2019-05-09T23:55:11.727Z,18.75
2019-05-09T23:57:58.728Z,18.32
